Impala San Antonio — PD2500 — position and weather

sailwx.info

Track history (hours):
 
Tides and Currents Weather Stations Pressure Air Temp Water Temp Dewpoint Dewpoint Depression Visibility Wind Speed Wind Dir Waves Ship Positions

Impala San Antonio

Last reported at 2017-Nov-24 21:30 UTC. Time now 2017-Nov-24 21:50 UTC.
Position N 10°18' W 075°33'.

MMSI: 245999190.

Date/timePositionNaut miles runAvg speedWind from/ knotsBaromVisibWave heightAir tempDewpointWater temp
2017-Nov-24 21:30N 10°18' W 075°33'0 0.0
2017-Nov-24 21:00N 10°18' W 075°33'0 0.9
2017-Nov-24 20:30N 10°17' W 075°32'0 0.0
2017-Nov-24 20:00N 10°17' W 075°32'0 0.9
2017-Nov-24 19:30N 10°18' W 075°33'0 0.0
2017-Nov-24 19:00N 10°18' W 075°33'0 0.0
2017-Nov-24 18:30N 10°18' W 075°33'0 0.0
2017-Nov-24 18:00N 10°18' W 075°33'0 0.0
2017-Nov-24 17:30N 10°18' W 075°33'0 0.0
2017-Nov-24 17:00N 10°18' W 075°33'0 0.0
2017-Nov-24 16:30N 10°18' W 075°33'0 0.0
2017-Nov-24 16:00N 10°18' W 075°33'0 0.0
2017-Nov-24 15:30N 10°18' W 075°33'0 0.0
2017-Nov-24 15:00N 10°18' W 075°33'0 0.1
2017-Nov-24 14:30N 10°18' W 075°33'0 0.1
2017-Nov-24 14:00N 10°18' W 075°33'0 0.0
2017-Nov-24 13:30N 10°18' W 075°33'0 0.0
2017-Nov-24 13:00N 10°18' W 075°33'0 0.0
2017-Nov-24 12:30N 10°18' W 075°33'0 0.0
2017-Nov-24 12:00N 10°18' W 075°33'0 0.0
2017-Nov-24 11:30N 10°18' W 075°33'0 0.0
2017-Nov-24 11:01N 10°18' W 075°33'0 0.0
2017-Nov-24 10:30N 10°18' W 075°33'0 0.0
2017-Nov-24 10:00N 10°18' W 075°33'  
2017-Nov-16 16:24N 10°09' W 075°30'2 4.4
2017-Nov-16 16:00N 10°10' W 075°30'1 1.7
2017-Nov-16 15:30N 10°11' W 075°31'1 2.5
2017-Nov-16 15:00N 10°12' W 075°31'5 0.2
2017-Nov-15 10:34N 10°17' W 075°31'1 7.2
2017-Nov-15 10:29N 10°17' W 075°31'3 6.8
2017-Nov-15 10:00N 10°13' W 075°31'4 7.0
2017-Nov-15 09:30N 10°10' W 075°30'1 0.1
2017-Nov-15 00:26N 10°09' W 075°30'2 4.5
2017-Nov-15 00:00N 10°11' W 075°30'2 3.7
2017-Nov-14 23:29N 10°13' W 075°31'2 4.1
2017-Nov-14 22:57N 10°15' W 075°31'1 1.5
2017-Nov-14 22:30N 10°15' W 075°31'1 2.7
2017-Nov-14 21:58N 10°17' W 075°31'  
Track history (hours):
 
Tides and Currents Weather Stations Pressure Air Temp Water Temp Dewpoint Dewpoint Depression Visibility Wind Speed Wind Dir Waves Ship Positions

Impala San Antonio

Last reported at 2017-Nov-24 21:30 UTC. Time now 2017-Nov-24 21:50 UTC.
Position N 10°18' W 075°33'.

MMSI: 245999190.

Date/timePositionNaut miles runAvg speedWind from/ knotsBaromVisibWave heightAir tempDewpointWater temp
2017-Nov-24 21:30N 10°18' W 075°33'0 0.0
2017-Nov-24 21:00N 10°18' W 075°33'0 0.9
2017-Nov-24 20:30N 10°17' W 075°32'0 0.0
2017-Nov-24 20:00N 10°17' W 075°32'0 0.9
2017-Nov-24 19:30N 10°18' W 075°33'0 0.0
2017-Nov-24 19:00N 10°18' W 075°33'0 0.0
2017-Nov-24 18:30N 10°18' W 075°33'0 0.0
2017-Nov-24 18:00N 10°18' W 075°33'0 0.0
2017-Nov-24 17:30N 10°18' W 075°33'0 0.0
2017-Nov-24 17:00N 10°18' W 075°33'0 0.0
2017-Nov-24 16:30N 10°18' W 075°33'0 0.0
2017-Nov-24 16:00N 10°18' W 075°33'0 0.0
2017-Nov-24 15:30N 10°18' W 075°33'0 0.0
2017-Nov-24 15:00N 10°18' W 075°33'0 0.1
2017-Nov-24 14:30N 10°18' W 075°33'0 0.1
2017-Nov-24 14:00N 10°18' W 075°33'0 0.0
2017-Nov-24 13:30N 10°18' W 075°33'0 0.0
2017-Nov-24 13:00N 10°18' W 075°33'0 0.0
2017-Nov-24 12:30N 10°18' W 075°33'0 0.0
2017-Nov-24 12:00N 10°18' W 075°33'0 0.0
2017-Nov-24 11:30N 10°18' W 075°33'0 0.0
2017-Nov-24 11:01N 10°18' W 075°33'0 0.0
2017-Nov-24 10:30N 10°18' W 075°33'0 0.0
2017-Nov-24 10:00N 10°18' W 075°33'  
2017-Nov-16 16:24N 10°09' W 075°30'2 4.4
2017-Nov-16 16:00N 10°10' W 075°30'1 1.7
2017-Nov-16 15:30N 10°11' W 075°31'1 2.5
2017-Nov-16 15:00N 10°12' W 075°31'5 0.2
2017-Nov-15 10:34N 10°17' W 075°31'1 7.2
2017-Nov-15 10:29N 10°17' W 075°31'3 6.8
2017-Nov-15 10:00N 10°13' W 075°31'4 7.0
2017-Nov-15 09:30N 10°10' W 075°30'1 0.1
2017-Nov-15 00:26N 10°09' W 075°30'2 4.5
2017-Nov-15 00:00N 10°11' W 075°30'2 3.7
2017-Nov-14 23:29N 10°13' W 075°31'2 4.1
2017-Nov-14 22:57N 10°15' W 075°31'1 1.5
2017-Nov-14 22:30N 10°15' W 075°31'1 2.7
2017-Nov-14 21:58N 10°17' W 075°31'  

Dump ship's entire track history